Aérodrome :
LOGIN :

S'inscrire | Disclaimer

   EN    FR    IT 

 










Légende :    VFR   VFR Marginal   IFR   IFR Intensif   IFR Très Intensif
Visi : 
Plafond : 
>= 8 km
>= 3000ft
5 à 8 km
1000 à 3000 ft
1500m à 5 km
500 à 1000 ft
800 à 1500m
200 à 500 ft
< 800m
< 200 ft
Symboles :   Orages  Brouillard  Fortes neiges  Fortes précipitations  Vent > 20 kt
SIGMETs :   Divers  Orages  Givrage  Turbulence  Onde Orograph.  Cendres Volcan.






- Altitude de l'aérodrome : 140 ft
- Code IATA : NYO


ESKN - Skavsta

DERNIER METAR :
  • 072350Z 24004KT CAVOK 04/01 Q1029

METARs EXPIRÉS :
  • 072320Z 22003KT CAVOK 03/00 Q1029
  • 072250Z 24005KT CAVOK 03/01 Q1029
  • 072220Z 23003KT CAVOK 05/01 Q1029
  • 072150Z 25005KT CAVOK 04/01 Q1029
  • 072120Z 22002KT CAVOK 03/M00 Q1029
  • 072050Z 28002KT CAVOK 05/00 Q1028

TAF TAF ESKN
Valide du 08 à 00h jusqu'au 09 à 00h UTC


072330Z 0800/0824 24006KT CAVOK
BECMG 0809/0811 24015G25KT
BECMG 0815/0817 24012KT



MET'MAP, la Météo Aéronautique d'un coup d'oeil ! - Copyright ORBIFLY Décembre 2007 - Disclaimer

ORBIFLY MET'MAP TEAM :

Programmation & Développement : Alexandra Zaïnal
Sur une idée originale de : Baudouin d'Aumeries
Assistance à la programmation : Marc-Olivier Méhu
Soutien technique & logistique : Manuel Goepfert

Contact : metmap@orbifly.com




SOURCES & CREDITS :

   NOAA